Time;durP1;ratioP1;P1;durP2;ratioP2;P2;SDS_P1;SDS_P2;PMS_P1;PMS_P2;Temp;Humidity;BMP_temperature;BMP_pressure;BME280_temperature;BME280_humidity;BME280_pressure;Samples;Min_cycle;Max_cycle;Signal;HPM_P1;HPM_P2
2023/12/30 00:02:08;;;;;;;8.68;3.90;;;;;;;3.03;70.65;92741.22;2061594;69;20161;-82
2023/12/30 00:04:34;;;;;;;6.72;3.90;;;;;;;3.27;70.48;92742.63;2061153;69;20505;-81
2023/12/30 00:07:00;;;;;;;7.25;3.70;;;;;;;3.33;70.35;92739.63;2058661;69;20152;-84
2023/12/30 00:09:25;;;;;;;8.88;4.07;;;;;;;3.37;70.00;92742.78;2061775;69;20404;-85
2023/12/30 00:11:53;;;;;;;5.30;3.50;;;;;;;3.35;69.64;92743.34;2061180;69;20157;-81
2023/12/30 00:14:21;;;;;;;7.65;3.83;;;;;;;3.29;69.51;92742.78;2061434;69;20214;-84
2023/12/30 00:16:46;;;;;;;6.35;3.90;;;;;;;3.25;69.45;92734.84;2058643;69;20141;-82
2023/12/30 00:19:13;;;;;;;6.40;3.40;;;;;;;2.80;71.05;92736.47;2061627;69;20161;-81
2023/12/30 00:21:38;;;;;;;8.55;3.90;;;;;;;2.89;71.71;92749.06;2055479;69;20173;-83
2023/12/30 00:24:04;;;;;;;7.43;3.78;;;;;;;3.12;70.62;92740.66;2061419;69;20236;-83
2023/12/30 00:26:30;;;;;;;9.88;3.90;;;;;;;3.02;70.65;92721.03;2061720;69;20609;-81
2023/12/30 00:29:03;;;;;;;7.40;3.88;;;;;;;2.73;72.25;92733.69;2058213;69;20159;-85
2023/12/30 00:31:30;;;;;;;10.10;3.90;;;;;;;2.50;73.14;92734.47;2061578;69;20219;-81
2023/12/30 00:33:58;;;;;;;7.88;3.78;;;;;;;2.94;71.75;92741.81;2061468;69;20150;-81
2023/12/30 00:36:24;;;;;;;6.40;3.65;;;;;;;3.06;70.83;92740.84;2061602;69;20142;-82
2023/12/30 00:38:50;;;;;;;5.80;3.20;;;;;;;3.19;70.65;92733.56;2061360;69;20264;-81
2023/12/30 00:41:16;;;;;;;6.97;2.70;;;;;;;3.22;70.14;92733.19;2061591;69;20252;-83
2023/12/30 00:43:43;;;;;;;3.83;2.30;;;;;;;3.18;70.13;92727.25;2057994;69;20219;-83
2023/12/30 00:46:11;;;;;;;4.60;2.78;;;;;;;2.97;71.28;92737.91;2058340;69;20153;-84
2023/12/30 00:48:36;;;;;;;6.30;3.20;;;;;;;2.62;72.85;92748.00;2058351;69;20161;-81
2023/12/30 00:51:02;;;;;;;5.03;3.10;;;;;;;2.85;71.29;92739.63;2061619;69;20157;-85
2023/12/30 00:53:29;;;;;;;6.10;2.92;;;;;;;3.05;70.81;92747.69;2061780;69;20143;-82
2023/12/30 00:55:56;;;;;;;7.95;3.50;;;;;;;2.74;71.01;92754.63;2061908;69;20216;-83
2023/12/30 00:58:23;;;;;;;5.93;2.70;;;;;;;2.90;71.49;92749.78;2061899;69;20703;-85
2023/12/30 01:00:52;;;;;;;4.80;2.70;;;;;;;2.97;71.32;92741.41;2061599;69;20181;-85
2023/12/30 01:03:19;;;;;;;5.50;2.50;;;;;;;3.00;71.36;92722.88;2061642;69;20163;-84
2023/12/30 01:05:45;;;;;;;4.82;2.95;;;;;;;3.00;71.20;92725.66;2057948;69;20305;-87
2023/12/30 01:08:11;;;;;;;4.28;2.30;;;;;;;3.05;70.52;92722.66;2061713;69;20234;-84
2023/12/30 01:10:38;;;;;;;5.15;2.53;;;;;;;3.08;70.47;92717.31;2061168;69;20248;-87
2023/12/30 01:13:05;;;;;;;6.07;2.80;;;;;;;2.78;71.25;92724.41;2057903;69;20163;-84
2023/12/30 01:15:31;;;;;;;6.07;3.22;;;;;;;2.80;71.46;92749.63;2058236;69;20244;-82
2023/12/30 01:17:57;;;;;;;6.07;2.80;;;;;;;2.89;70.97;92740.72;2058311;69;20200;-86
2023/12/30 01:20:22;;;;;;;3.35;2.40;;;;;;;2.98;70.86;92739.41;2061350;69;20232;-80
2023/12/30 01:22:48;;;;;;;7.25;2.88;;;;;;;2.90;70.27;92747.00;2061482;69;20157;-80
2023/12/30 01:25:16;;;;;;;7.13;3.45;;;;;;;2.40;71.93;92746.72;2060830;69;20237;-79
2023/12/30 01:27:41;;;;;;;7.03;3.67;;;;;;;2.65;72.52;92769.09;2058376;69;20181;-79
2023/12/30 01:30:08;;;;;;;8.43;4.00;;;;;;;2.81;71.83;92756.66;2058263;69;20155;-81
2023/12/30 01:32:34;;;;;;;6.05;3.40;;;;;;;2.89;71.14;92756.66;2061645;69;20163;-82
2023/12/30 01:35:00;;;;;;;7.22;3.80;;;;;;;2.96;71.00;92761.44;2061291;69;20202;-86
2023/12/30 01:37:26;;;;;;;11.15;5.40;;;;;;;2.62;71.77;92762.63;2061698;69;20605;-85
2023/12/30 01:39:51;;;;;;;10.93;5.80;;;;;;;2.84;71.84;92768.69;2055817;69;20265;-83
2023/12/30 01:42:17;;;;;;;7.97;3.70;;;;;;;2.65;72.20;92772.63;2061724;69;20149;-82
2023/12/30 01:44:43;;;;;;;6.13;3.58;;;;;;;2.59;73.01;92780.41;2058479;69;20581;-85
2023/12/30 01:47:08;;;;;;;5.55;3.53;;;;;;;2.76;72.45;92775.03;2058219;69;20603;-82
2023/12/30 01:49:34;;;;;;;8.52;3.22;;;;;;;2.87;71.44;92776.66;2062387;69;20227;-83
2023/12/30 01:52:01;;;;;;;5.13;3.22;;;;;;;2.98;71.13;92781.84;2062553;69;20604;-84
2023/12/30 01:54:28;;;;;;;7.07;3.00;;;;;;;2.32;72.67;92777.28;2062816;69;20148;-84
2023/12/30 01:56:54;;;;;;;6.57;3.58;;;;;;;2.46;72.73;92775.78;2056121;69;20272;-85
2023/12/30 01:59:20;;;;;;;6.35;3.67;;;;;;;2.55;72.50;92778.00;2059207;69;20236;-85
2023/12/30 02:01:46;;;;;;;8.18;3.55;;;;;;;2.72;71.83;92779.47;2058603;69;20169;-82
2023/12/30 02:04:12;;;;;;;4.32;2.78;;;;;;;2.78;71.50;92764.06;2059320;69;20287;-86
2023/12/30 02:06:39;;;;;;;6.07;2.88;;;;;;;2.54;72.66;92773.75;2058575;69;20137;-85
2023/12/30 02:09:05;;;;;;;5.63;2.90;;;;;;;2.77;71.99;92765.38;2061942;69;20152;-83
2023/12/30 02:11:32;;;;;;;5.28;2.70;;;;;;;2.90;71.50;92772.78;2061145;69;20150;-84
2023/12/30 02:13:58;;;;;;;6.57;3.03;;;;;;;2.74;71.79;92766.50;2057775;69;20173;-86
2023/12/30 02:16:24;;;;;;;5.97;2.97;;;;;;;2.71;72.21;92753.72;2056383;69;20302;-84
2023/12/30 02:18:49;;;;;;;4.05;2.60;;;;;;;2.64;71.61;92775.97;2054850;69;20172;-80
2023/12/30 02:21:15;;;;;;;6.00;2.80;;;;;;;2.72;71.84;92771.88;2055624;69;20212;-79
2023/12/30 02:23:41;;;;;;;4.38;3.00;;;;;;;2.53;71.72;92771.53;2056560;69;20215;-85
2023/12/30 02:26:09;;;;;;;5.10;2.95;;;;;;;2.73;71.56;92776.13;2058736;69;20235;-80
2023/12/30 02:28:35;;;;;;;3.80;2.40;;;;;;;2.65;71.68;92764.28;2062176;69;20149;-79
2023/12/30 02:31:01;;;;;;;3.75;2.53;;;;;;;2.65;72.25;92778.19;2061922;69;20152;-80
2023/12/30 02:33:27;;;;;;;5.43;3.17;;;;;;;2.39;73.21;92773.03;2061033;69;20613;-82
2023/12/30 02:35:53;;;;;;;7.43;3.00;;;;;;;2.59;72.75;92776.91;2061933;69;20152;-80
2023/12/30 02:38:19;;;;;;;4.18;2.60;;;;;;;2.43;73.65;92788.03;2058076;69;20150;-82
2023/12/30 02:40:45;;;;;;;5.22;2.97;;;;;;;2.69;72.28;92784.09;2055437;69;20145;-81
2023/12/30 02:43:11;;;;;;;5.97;2.80;;;;;;;2.74;71.86;92779.66;2060827;69;20718;-81
2023/12/30 02:45:37;;;;;;;4.13;2.53;;;;;;;2.79;71.59;92787.81;2062010;69;20165;-80
2023/12/30 02:48:03;;;;;;;4.30;1.90;;;;;;;2.78;72.08;92783.53;2061394;69;20133;-85
2023/12/30 02:50:29;;;;;;;4.13;2.08;;;;;;;2.76;71.67;92768.72;2058543;69;20157;-84
2023/12/30 02:52:55;;;;;;;3.88;2.20;;;;;;;2.50;72.84;92783.75;2061870;69;20145;-83
2023/12/30 02:55:20;;;;;;;5.90;2.83;;;;;;;2.49;73.24;92776.72;2061592;69;20149;-85
2023/12/30 02:57:46;;;;;;;3.80;2.13;;;;;;;2.71;72.23;92781.53;2061668;69;20176;-80
2023/12/30 03:00:12;;;;;;;3.83;2.15;;;;;;;2.69;72.73;92775.78;2058259;69;20149;-81
2023/12/30 03:02:38;;;;;;;5.03;2.20;;;;;;;2.90;71.20;92777.59;2061459;69;20149;-79
2023/12/30 03:05:03;;;;;;;3.95;2.60;;;;;;;2.81;71.48;92787.25;2061518;69;20237;-80
2023/12/30 03:07:29;;;;;;;3.58;2.30;;;;;;;2.65;72.16;92794.13;2058376;69;20222;-80
2023/12/30 03:09:54;;;;;;;5.90;2.40;;;;;;;2.75;71.54;92789.50;2061836;69;20219;-82
2023/12/30 03:12:20;;;;;;;4.03;2.40;;;;;;;2.84;71.63;92788.16;2061521;69;20148;-82
2023/12/30 03:14:46;;;;;;;3.72;2.00;;;;;;;2.83;71.20;92789.47;2058439;69;20497;-82
2023/12/30 03:17:11;;;;;;;7.05;2.70;;;;;;;2.75;71.84;92800.63;2058186;69;20177;-81
2023/12/30 03:19:37;;;;;;;5.03;2.80;;;;;;;2.77;71.75;92792.44;2061029;69;20141;-84
2023/12/30 03:22:03;;;;;;;4.43;2.53;;;;;;;2.71;72.05;92791.91;2057814;69;20612;-83
2023/12/30 03:24:28;;;;;;;4.35;2.47;;;;;;;2.87;71.61;92789.84;2061561;69;20663;-84
2023/12/30 03:26:54;;;;;;;4.78;2.45;;;;;;;2.75;71.65;92781.16;2061735;69;20207;-80
2023/12/30 03:29:20;;;;;;;4.72;2.45;;;;;;;2.70;72.51;92787.63;2057503;69;20173;-83
2023/12/30 03:31:46;;;;;;;4.40;2.10;;;;;;;2.62;72.46;92779.31;2060016;69;20232;-82
2023/12/30 03:34:12;;;;;;;2.63;1.52;;;;;;;2.95;71.28;92777.41;2061616;69;20341;-81
2023/12/30 03:36:38;;;;;;;2.15;1.38;;;;;;;3.04;70.30;92787.22;2057670;69;20150;-82
2023/12/30 03:39:05;;;;;;;3.10;1.55;;;;;;;3.18;70.04;92776.59;2060095;69;20209;-82
2023/12/30 03:41:31;;;;;;;2.40;1.48;;;;;;;3.30;69.71;92781.19;2060166;69;20351;-83
2023/12/30 03:43:56;;;;;;;2.88;1.35;;;;;;;3.33;69.48;92776.53;2060046;69;20583;-84
2023/12/30 03:46:23;;;;;;;3.78;1.90;;;;;;;3.01;70.86;92793.88;2053777;69;20617;-81
2023/12/30 03:48:49;;;;;;;3.78;2.10;;;;;;;2.93;71.29;92790.38;2056557;69;20203;-80
2023/12/30 03:51:14;;;;;;;2.60;1.80;;;;;;;3.09;70.73;92785.53;2055463;69;20188;-83
2023/12/30 03:53:41;;;;;;;4.20;2.08;;;;;;;3.11;70.58;92780.88;2056773;69;20225;-80
2023/12/30 03:56:06;;;;;;;3.72;1.80;;;;;;;2.72;71.73;92780.22;2056501;69;20180;-79
2023/12/30 03:58:32;;;;;;;3.17;1.95;;;;;;;2.96;71.39;92789.25;2055264;69;20195;-81
2023/12/30 04:00:58;;;;;;;3.65;1.80;;;;;;;3.07;70.80;92794.44;2056480;69;20165;-80
2023/12/30 04:03:26;;;;;;;3.63;1.83;;;;;;;3.12;70.60;92781.63;2059743;69;20686;-81
2023/12/30 04:05:52;;;;;;;2.63;1.65;;;;;;;3.15;70.09;92777.72;2059522;69;20189;-80
2023/12/30 04:08:17;;;;;;;3.22;1.70;;;;;;;3.16;70.05;92779.94;2059156;69;20172;-81
2023/12/30 04:10:43;;;;;;;4.38;1.83;;;;;;;3.11;70.15;92782.91;2056689;69;20615;-80
2023/12/30 04:13:09;;;;;;;5.53;1.70;;;;;;;3.15;69.75;92783.28;2056525;69;20137;-79
2023/12/30 04:15:35;;;;;;;3.13;1.45;;;;;;;2.95;71.34;92773.88;2056464;69;20149;-81
2023/12/30 04:18:00;;;;;;;2.63;1.40;;;;;;;2.97;71.27;92782.41;2056336;69;20207;-82
2023/12/30 04:20:26;;;;;;;2.13;1.40;;;;;;;3.11;70.45;92782.91;2059738;69;20181;-84
2023/12/30 04:22:52;;;;;;;2.92;1.48;;;;;;;3.04;70.33;92793.50;2059639;69;20205;-84
2023/12/30 04:25:17;;;;;;;3.50;1.70;;;;;;;3.19;69.76;92795.50;2056312;69;20210;-82
2023/12/30 04:27:43;;;;;;;3.58;1.50;;;;;;;3.22;69.66;92799.97;2059711;69;20189;-83
2023/12/30 04:30:09;;;;;;;3.55;1.30;;;;;;;3.21;70.04;92795.69;2059576;69;20157;-85
2023/12/30 04:32:34;;;;;;;2.50;1.40;;;;;;;3.20;70.63;92802.53;2059685;69;20200;-81
2023/12/30 04:35:03;;;;;;;2.53;1.90;;;;;;;3.03;70.22;92796.88;2056244;69;20673;-81
2023/12/30 04:37:30;;;;;;;4.65;1.80;;;;;;;3.09;70.10;92800.19;2056288;69;20623;-81
2023/12/30 04:39:55;;;;;;;2.15;1.40;;;;;;;3.13;70.23;92811.66;2056725;69;20149;-81
2023/12/30 04:42:22;;;;;;;2.33;1.50;;;;;;;3.08;70.87;92811.88;2056621;69;20212;-79
2023/12/30 04:44:48;;;;;;;2.60;1.40;;;;;;;3.18;70.41;92823.91;2056834;69;20133;-80
2023/12/30 04:47:13;;;;;;;1.60;1.15;;;;;;;3.24;69.99;92814.03;2060648;69;20242;-80
2023/12/30 04:49:41;;;;;;;3.03;1.10;;;;;;;3.24;69.60;92813.31;2057012;69;20201;-82
2023/12/30 04:52:07;;;;;;;3.58;2.20;;;;;;;3.31;69.23;92820.91;2056821;69;20422;-82
2023/12/30 04:54:32;;;;;;;7.35;3.50;;;;;;;3.14;69.54;92815.94;2057033;69;20157;-82
2023/12/30 04:56:58;;;;;;;11.13;5.55;;;;;;;3.18;69.12;92813.50;2057016;69;20185;-82
2023/12/30 04:59:25;;;;;;;9.48;4.20;;;;;;;3.15;69.07;92819.44;2056978;69;20196;-86
2023/12/30 05:01:51;;;;;;;4.75;2.20;;;;;;;3.05;69.86;92808.91;2056792;69;20519;-84
2023/12/30 05:04:17;;;;;;;2.50;1.30;;;;;;;3.23;68.79;92809.78;2060082;69;20664;-81
2023/12/30 05:06:42;;;;;;;3.15;1.23;;;;;;;3.34;68.67;92810.66;2060373;69;20160;-83
2023/12/30 05:09:09;;;;;;;2.00;1.13;;;;;;;3.38;69.22;92814.56;2060360;69;20323;-84
2023/12/30 05:11:35;;;;;;;2.10;1.40;;;;;;;3.33;69.28;92814.75;2054095;69;20147;-83
2023/12/30 05:14:01;;;;;;;3.83;1.40;;;;;;;3.18;70.10;92829.47;2060467;69;20150;-83
2023/12/30 05:16:26;;;;;;;5.40;2.60;;;;;;;2.92;69.86;92828.56;2060616;69;20209;-81
2023/12/30 05:18:52;;;;;;;2.67;1.65;;;;;;;3.03;69.91;92819.84;2061746;69;20201;-81
2023/12/30 05:21:17;;;;;;;1.92;1.30;;;;;;;3.21;68.36;92826.31;2061533;69;20164;-81
2023/12/30 05:23:44;;;;;;;3.78;2.17;;;;;;;3.18;68.49;92835.03;2058161;69;20654;-82
2023/12/30 05:26:14;;;;;;;4.65;2.42;;;;;;;2.93;69.32;92826.53;2060436;69;20200;-81
2023/12/30 05:28:40;;;;;;;4.97;2.38;;;;;;;2.70;70.03;92832.88;2058600;69;20138;-81
2023/12/30 05:31:05;;;;;;;6.45;2.72;;;;;;;2.68;70.53;92835.44;2062118;69;20248;-87
2023/12/30 05:33:31;;;;;;;6.15;2.60;;;;;;;2.74;70.12;92822.09;2062006;69;20157;-85
2023/12/30 05:35:57;;;;;;;4.85;2.60;;;;;;;2.56;71.04;92828.78;2061729;69;20181;-84
2023/12/30 05:38:22;;;;;;;3.38;2.30;;;;;;;2.78;69.97;92828.03;2063556;69;20137;-80
2023/12/30 05:40:48;;;;;;;6.75;2.40;;;;;;;2.87;69.44;92829.50;2063681;69;20197;-81
2023/12/30 05:43:13;;;;;;;6.32;2.50;;;;;;;2.72;69.68;92829.53;2063173;69;20259;-85
2023/12/30 05:45:40;;;;;;;6.93;3.00;;;;;;;2.42;71.14;92833.78;2064792;69;20138;-86
2023/12/30 05:48:06;;;;;;;5.60;3.13;;;;;;;2.40;71.01;92844.72;2062424;69;20170;-82
2023/12/30 05:50:32;;;;;;;6.82;2.70;;;;;;;2.50;70.69;92844.91;2062479;69;20663;-82
2023/12/30 05:52:59;;;;;;;5.65;2.67;;;;;;;2.29;70.99;92854.16;2057258;69;20209;-81
2023/12/30 05:55:24;;;;;;;9.68;2.60;;;;;;;2.10;72.94;92875.94;2060285;69;20565;-84
2023/12/30 05:57:50;;;;;;;4.70;2.47;;;;;;;2.34;71.58;92876.72;2056791;69;20706;-82
2023/12/30 06:00:16;;;;;;;6.43;3.33;;;;;;;2.19;71.61;92878.19;2060239;69;20213;-82
2023/12/30 06:02:42;;;;;;;8.70;4.05;;;;;;;2.09;72.71;92882.06;2060501;69;20221;-80
2023/12/30 06:05:08;;;;;;;7.22;3.78;;;;;;;2.07;71.88;92890.22;2060474;69;20145;-86
2023/12/30 06:07:34;;;;;;;6.00;2.90;;;;;;;2.13;72.63;92893.56;2060348;69;20574;-81
2023/12/30 06:10:00;;;;;;;5.13;3.17;;;;;;;2.29;71.93;92881.16;2059901;69;20188;-79
2023/12/30 06:12:25;;;;;;;8.40;4.30;;;;;;;2.13;72.65;92876.88;2060623;69;20145;-82
2023/12/30 06:14:51;;;;;;;7.03;4.07;;;;;;;2.29;71.97;92881.94;2060499;69;20156;-83
2023/12/30 06:17:17;;;;;;;5.10;3.03;;;;;;;2.22;71.98;92879.88;2062183;69;20276;-82
2023/12/30 06:19:42;;;;;;;5.78;3.33;;;;;;;2.16;71.88;92868.19;2060907;69;20189;-81
2023/12/30 06:22:08;;;;;;;6.85;3.90;;;;;;;2.00;72.12;92886.09;2059951;69;20145;-84
2023/12/30 06:24:35;;;;;;;6.35;3.80;;;;;;;2.13;71.56;92896.31;2060026;69;20219;-82
2023/12/30 06:27:03;;;;;;;6.53;4.10;;;;;;;2.08;71.65;92894.47;2060493;69;20249;-80
2023/12/30 06:29:29;;;;;;;9.07;3.67;;;;;;;2.03;71.54;92899.63;2059519;69;20179;-80
2023/12/30 06:31:54;;;;;;;7.57;3.92;;;;;;;2.00;71.53;92897.94;2059823;69;20169;-85
2023/12/30 06:34:20;;;;;;;7.70;4.00;;;;;;;1.72;72.02;92889.72;2059554;69;20184;-85
2023/12/30 06:36:48;;;;;;;6.65;3.50;;;;;;;1.88;71.83;92899.59;2056979;69;20130;-87
2023/12/30 06:39:17;;;;;;;7.45;3.58;;;;;;;1.97;71.78;92915.72;2059961;69;20296;-85
2023/12/30 06:41:43;;;;;;;9.57;4.50;;;;;;;1.71;72.86;92921.53;2059935;69;20153;-84
2023/12/30 06:44:09;;;;;;;17.45;10.05;;;;;;;1.62;72.79;92925.56;2059570;69;20213;-87
2023/12/30 06:46:35;;;;;;;21.08;8.68;;;;;;;1.63;73.31;92913.16;2059816;69;20180;-87
2023/12/30 06:49:01;;;;;;;15.45;8.50;;;;;;;1.73;72.37;92921.72;2059843;69;20178;-86
2023/12/30 06:51:27;;;;;;;17.50;9.50;;;;;;;1.76;72.56;92937.28;2061479;69;20160;-83
2023/12/30 06:53:54;;;;;;;16.58;9.63;;;;;;;1.73;72.63;92933.56;2056543;69;20145;-84
2023/12/30 06:56:19;;;;;;;18.85;10.60;;;;;;;1.66;72.10;92934.28;2056533;69;20525;-86
2023/12/30 06:58:45;;;;;;;14.68;9.00;;;;;;;1.77;71.87;92953.38;2056503;69;20172;-86
2023/12/30 07:01:14;;;;;;;19.48;10.88;;;;;;;1.44;73.35;92946.00;2056589;69;20177;-81
2023/12/30 07:03:40;;;;;;;17.95;10.35;;;;;;;1.62;73.20;92945.00;2056916;69;20165;-79
2023/12/30 07:06:06;;;;;;;25.85;15.02;;;;;;;1.45;74.31;92939.16;2056816;69;20145;-86
2023/12/30 07:08:32;;;;;;;18.92;12.18;;;;;;;1.58;73.80;92944.59;2055700;69;20593;-82
2023/12/30 07:10:58;;;;;;;18.95;12.02;;;;;;;1.64;73.19;92958.31;2057017;69;20181;-84
2023/12/30 07:13:25;;;;;;;20.73;12.80;;;;;;;1.68;72.92;92965.00;2056751;69;20161;-81
2023/12/30 07:15:52;;;;;;;24.23;12.63;;;;;;;1.26;74.71;92972.69;2056189;69;20181;-82
2023/12/30 07:18:18;;;;;;;21.83;11.25;;;;;;;1.48;73.21;92974.88;2056464;69;20171;-86
2023/12/30 07:20:45;;;;;;;27.08;12.85;;;;;;;1.52;73.28;92969.72;2056172;69;20204;-86
2023/12/30 07:23:10;;;;;;;18.10;10.55;;;;;;;1.56;73.34;92972.16;2056447;69;20145;-85
2023/12/30 07:25:36;;;;;;;23.77;10.77;;;;;;;1.52;73.13;92974.53;2056141;69;20325;-87
2023/12/30 07:28:03;;;;;;;29.80;14.00;;;;;;;1.06;74.92;92971.44;2056348;69;20235;-82
2023/12/30 07:30:29;;;;;;;28.70;13.80;;;;;;;1.44;74.06;92984.84;2053151;69;20173;-86
2023/12/30 07:32:55;;;;;;;26.88;15.38;;;;;;;1.51;73.83;92981.34;2056339;69;20157;-85
2023/12/30 07:35:20;;;;;;;21.65;12.65;;;;;;;1.49;73.41;92984.69;2056597;69;20224;-81
2023/12/30 07:37:46;;;;;;;21.73;11.40;;;;;;;1.61;73.12;92987.16;2056334;69;20217;-83
2023/12/30 07:40:12;;;;;;;20.20;11.77;;;;;;;1.62;73.00;92996.97;2056073;69;20625;-86
2023/12/30 07:42:38;;;;;;;24.42;11.20;;;;;;;1.61;72.75;92992.72;2056529;69;20161;-86
2023/12/30 07:45:06;;;;;;;31.08;14.45;;;;;;;1.63;73.29;93006.78;2055824;69;20165;-84
2023/12/30 07:47:34;;;;;;;25.35;12.95;;;;;;;1.64;73.01;93002.72;2058214;69;20173;-84
2023/12/30 07:50:00;;;;;;;19.95;10.90;;;;;;;1.63;73.42;93001.97;2055981;69;20185;-87
2023/12/30 07:52:26;;;;;;;32.17;17.73;;;;;;;1.57;73.81;93001.38;2058856;69;20197;-84
2023/12/30 07:54:56;;;;;;;30.13;17.30;;;;;;;1.69;73.50;93010.88;2055191;69;20196;-84
2023/12/30 07:57:22;;;;;;;28.80;16.45;;;;;;;1.75;73.36;93005.94;2056734;69;20185;-87
2023/12/30 07:59:49;;;;;;;35.45;19.13;;;;;;;1.73;73.37;93011.28;2057843;69;20153;-85
2023/12/30 08:02:15;;;;;;;32.17;17.45;;;;;;;1.85;73.31;93011.00;2057838;69;20668;-86
2023/12/30 08:04:43;;;;;;;25.85;15.02;;;;;;;1.88;73.11;93016.19;2058141;69;20157;-86
2023/12/30 08:07:09;;;;;;;29.95;17.35;;;;;;;1.74;73.31;93004.47;2058323;69;20498;-88
2023/12/30 08:09:37;;;;;;;34.60;18.63;;;;;;;1.71;73.82;93005.53;2058236;69;20150;-85
2023/12/30 08:12:04;;;;;;;48.78;23.77;;;;;;;1.92;73.02;92999.16;2057750;69;20553;-81
2023/12/30 08:14:30;;;;;;;50.17;22.90;;;;;;;1.88;72.85;92991.22;2058477;69;20596;-85
2023/12/30 08:16:58;;;;;;;44.00;21.63;;;;;;;2.05;72.63;93010.16;2058835;69;20224;-84
2023/12/30 08:19:24;;;;;;;43.33;20.42;;;;;;;1.99;73.25;93004.78;2058624;69;20150;-83
2023/12/30 08:21:50;;;;;;;39.72;20.05;;;;;;;2.08;72.98;93006.28;2058653;69;20152;-84
2023/12/30 08:24:18;;;;;;;38.10;20.05;;;;;;;2.09;73.02;92993.16;2058495;69;20145;-81
2023/12/30 08:26:43;;;;;;;38.03;19.08;;;;;;;2.18;72.40;92992.63;2058256;69;20207;-80
2023/12/30 08:29:09;;;;;;;38.83;19.48;;;;;;;2.24;72.63;93001.53;2058079;69;20142;-83
2023/12/30 08:31:35;;;;;;;35.60;19.20;;;;;;;2.26;72.57;92991.38;2058578;69;20153;-83
2023/12/30 08:34:01;;;;;;;34.55;17.63;;;;;;;2.28;72.74;92999.88;2058617;69;20675;-84
2023/12/30 08:36:28;;;;;;;21.48;11.10;;;;;;;2.27;72.58;92998.41;2058583;69;20150;-83
2023/12/30 08:38:54;;;;;;;25.40;12.52;;;;;;;2.42;72.61;92988.63;2055436;69;20161;-82
2023/12/30 08:41:24;;;;;;;24.90;11.50;;;;;;;2.43;71.89;92982.53;2056302;69;20245;-85
2023/12/30 08:43:55;;;;;;;33.17;16.70;;;;;;;1.88;73.84;92982.88;2055352;69;20166;-81
2023/12/30 08:46:22;;;;;;;30.75;17.20;;;;;;;2.32;73.03;92982.13;2054844;69;20150;-81
2023/12/30 08:48:48;;;;;;;30.73;13.75;;;;;;;2.46;72.68;92975.88;2054911;69;20228;-80
2023/12/30 08:51:15;;;;;;;27.70;13.43;;;;;;;2.07;73.91;92979.81;2059296;69;20527;-80
2023/12/30 08:53:40;;;;;;;23.73;12.55;;;;;;;2.16;74.61;92982.09;2060276;69;20995;-80
2023/12/30 08:56:06;;;;;;;31.05;16.02;;;;;;;2.18;73.89;92981.53;2060143;69;20241;-87
2023/12/30 08:58:32;;;;;;;31.95;15.15;;;;;;;2.57;73.26;92983.13;2059967;69;20229;-86
2023/12/30 09:00:57;;;;;;;27.38;15.00;;;;;;;2.93;73.63;92977.47;2059708;69;20230;-86
2023/12/30 09:03:23;;;;;;;33.10;15.77;;;;;;;2.69;74.92;92989.09;2060037;69;20160;-88
2023/12/30 09:05:51;;;;;;;31.35;15.32;;;;;;;3.17;71.74;92987.31;2059436;69;20149;-82
2023/12/30 09:08:18;;;;;;;31.17;15.02;;;;;;;3.36;71.92;92984.16;2062036;69;20899;-82
2023/12/30 09:10:44;;;;;;;23.45;11.40;;;;;;;3.02;70.65;92981.72;2062861;69;20558;-79
2023/12/30 09:13:10;;;;;;;20.58;11.55;;;;;;;3.14;71.73;92988.41;2063506;69;20168;-84
2023/12/30 09:15:36;;;;;;;26.90;13.38;;;;;;;3.55;71.69;92980.97;2063341;69;20244;-85
2023/12/30 09:18:02;;;;;;;28.52;13.85;;;;;;;3.30;71.44;92984.34;2058816;69;20141;-80
2023/12/30 09:20:28;;;;;;;25.15;13.70;;;;;;;3.85;71.07;92988.53;2062602;69;20238;-80
2023/12/30 09:22:54;;;;;;;23.15;12.60;;;;;;;4.18;70.51;92988.63;2063144;69;20157;-79
2023/12/30 09:25:19;;;;;;;24.23;12.88;;;;;;;4.45;72.37;92989.66;2062767;69;20623;-81
2023/12/30 09:27:46;;;;;;;28.63;14.43;;;;;;;4.83;69.23;92992.22;2062116;69;20204;-82
2023/12/30 09:30:11;;;;;;;35.45;17.67;;;;;;;5.09;68.88;92990.22;2063268;69;20560;-79
2023/12/30 09:32:37;;;;;;;38.47;19.77;;;;;;;5.21;68.10;92987.72;2063389;69;20161;-85
2023/12/30 09:35:03;;;;;;;42.55;21.13;;;;;;;5.05;66.94;92990.63;2062690;69;20144;-83
2023/12/30 09:37:29;;;;;;;38.13;19.77;;;;;;;5.83;67.62;92992.22;2063525;69;20149;-84
2023/12/30 09:39:54;;;;;;;32.28;16.55;;;;;;;6.13;65.09;92984.88;2064469;69;20212;-87
2023/12/30 09:42:20;;;;;;;25.92;11.57;;;;;;;6.47;66.36;92983.38;2063774;69;20133;-85
2023/12/30 09:44:50;;;;;;;17.65;10.18;;;;;;;6.50;64.18;92980.16;2063029;69;20240;-85
2023/12/30 09:47:17;;;;;;;16.27;9.40;;;;;;;6.54;63.31;92974.16;2062243;69;20215;-86
2023/12/30 09:49:44;;;;;;;16.13;9.80;;;;;;;7.11;63.13;92981.44;2061704;69;20521;-87
2023/12/30 09:52:10;;;;;;;16.30;8.57;;;;;;;6.78;61.67;92983.72;2061715;69;20512;-87
2023/12/30 09:54:38;;;;;;;17.73;8.77;;;;;;;6.92;61.64;92989.69;2062101;69;20570;-88
2023/12/30 09:57:04;;;;;;;13.13;7.90;;;;;;;7.46;60.33;92989.66;2058458;69;20164;-83
2023/12/30 09:59:30;;;;;;;16.05;7.40;;;;;;;7.95;59.48;92979.34;2061993;69;20152;-82
2023/12/30 10:01:56;;;;;;;11.60;6.70;;;;;;;8.42;59.54;92989.16;2061823;69;20142;-80
2023/12/30 10:04:22;;;;;;;16.15;8.05;;;;;;;8.91;58.72;92981.44;2061656;69;20141;-85
2023/12/30 10:06:51;;;;;;;13.48;7.78;;;;;;;8.48;57.04;92981.19;2061800;69;20684;-86
2023/12/30 10:09:22;;;;;;;10.20;6.10;;;;;;;9.07;56.90;92970.59;2061789;69;20655;-87
2023/12/30 10:11:49;;;;;;;8.95;5.90;;;;;;;9.72;54.46;92968.75;2061700;69;20177;-83
2023/12/30 10:14:15;;;;;;;12.57;6.43;;;;;;;9.82;54.40;92967.38;2061889;69;20180;-82
2023/12/30 10:16:41;;;;;;;19.40;11.40;;;;;;;10.14;53.48;92965.25;2058553;69;20132;-85
2023/12/30 10:19:16;;;;;;;9.60;5.93;;;;;;;10.36;51.67;92966.75;2061563;69;20137;-80
2023/12/30 10:21:42;;;;;;;10.75;5.55;;;;;;;9.53;53.01;92959.09;2061792;69;20636;-82
2023/12/30 10:24:08;;;;;;;8.65;4.80;;;;;;;10.68;53.04;92951.25;2061854;69;20157;-85
2023/12/30 10:26:37;;;;;;;7.95;4.38;;;;;;;10.56;51.82;92946.91;2061349;69;20137;-81
2023/12/30 10:29:05;;;;;;;8.02;5.30;;;;;;;9.80;51.86;92946.81;2061814;69;20606;-85
2023/12/30 10:31:31;;;;;;;11.55;6.57;;;;;;;10.22;52.29;92945.34;2061788;69;20149;-84
2023/12/30 10:33:57;;;;;;;10.93;6.97;;;;;;;11.61;50.64;92937.94;2061624;69;20176;-82
2023/12/30 10:36:23;;;;;;;11.77;7.35;;;;;;;12.61;48.16;92944.56;2061836;69;20149;-81
2023/12/30 10:38:49;;;;;;;10.32;6.00;;;;;;;12.91;47.13;92936.31;2061761;69;20153;-84
2023/12/30 10:41:15;;;;;;;15.40;6.45;;;;;;;14.03;46.23;92942.38;2061793;69;20141;-82
2023/12/30 10:43:40;;;;;;;9.05;5.68;;;;;;;14.78;44.37;92942.59;2061869;69;20513;-85
2023/12/30 10:46:11;;;;;;;10.65;5.30;;;;;;;14.00;42.95;92935.13;2061679;69;20233;-83
2023/12/30 10:48:46;;;;;;;8.27;5.82;;;;;;;14.54;43.30;92942.13;2061685;69;20521;-83
2023/12/30 10:51:14;;;;;;;9.60;6.35;;;;;;;15.37;42.78;92939.75;2061730;69;20161;-83
2023/12/30 10:53:46;;;;;;;9.75;6.10;;;;;;;16.34;41.43;92937.03;2061671;69;20141;-83
2023/12/30 10:56:21;;;;;;;12.70;5.93;;;;;;;17.02;39.77;92929.22;2061709;69;20228;-84
2023/12/30 10:58:51;;;;;;;9.52;5.70;;;;;;;17.58;39.87;92915.03;2061725;69;20236;-84
2023/12/30 11:01:19;;;;;;;8.98;5.25;;;;;;;18.11;37.49;92914.94;2061757;69;20224;-83
2023/12/30 11:03:45;;;;;;;15.68;8.57;;;;;;;16.27;39.68;92907.63;2061557;69;20237;-85
2023/12/30 11:06:28;;;;;;;11.07;6.97;;;;;;;18.64;38.04;92905.38;2058412;69;20232;-83
2023/12/30 11:09:09;;;;;;;9.15;7.00;;;;;;;20.60;35.98;92916.38;2061711;69;20160;-84
2023/12/30 11:11:39;;;;;;;10.40;6.85;;;;;;;18.68;35.20;92904.78;2061602;69;20173;-83
2023/12/30 11:14:12;;;;;;;10.77;6.90;;;;;;;16.14;36.88;92902.81;2058418;69;20248;-84
2023/12/30 11:16:37;;;;;;;11.93;7.05;;;;;;;14.60;39.79;92891.44;2058433;69;20165;-81
2023/12/30 11:19:04;;;;;;;13.85;7.22;;;;;;;13.33;42.10;92889.91;2061536;69;20593;-81
2023/12/30 11:21:43;;;;;;;18.00;10.70;;;;;;;12.27;43.32;92886.84;2061747;69;20219;-81
2023/12/30 11:24:11;;;;;;;15.90;11.75;;;;;;;11.16;46.10;92888.03;2061610;69;20160;-81
2023/12/30 11:26:41;;;;;;;13.82;9.30;;;;;;;11.53;45.38;92884.63;2061752;69;20679;-81
2023/12/30 11:29:11;;;;;;;16.23;8.20;;;;;;;11.11;45.85;92880.69;2061776;69;20236;-80
2023/12/30 11:31:40;;;;;;;11.70;7.40;;;;;;;10.89;46.43;92868.03;2061640;69;20173;-80
2023/12/30 11:34:05;;;;;;;13.52;7.50;;;;;;;10.63;47.09;92862.25;2061537;69;20602;-79